Time;durP1;ratioP1;P1;durP2;ratioP2;P2;SDS_P1;SDS_P2;PMS_P1;PMS_P2;Temp;Humidity;BMP_temperature;BMP_pressure;BME280_temperature;BME280_humidity;BME280_pressure;Samples;Min_cycle;Max_cycle;Signal;HPM_P1;HPM_P2
2022/06/06 00:02:39;;;;;;;3.88;3.50;;;15.40;4.80;;;;;;10427468;28;20203;-93
2022/06/06 00:08:00;;;;;;;4.68;3.50;;;15.40;6.90;;;;;;10412331;28;20203;-95
2022/06/06 00:13:21;;;;;;;4.13;3.28;;;15.50;4.10;;;;;;10412185;28;20432;-88
2022/06/06 00:18:44;;;;;;;6.03;3.10;;;15.40;4.90;;;;;;10424206;28;20256;-92
2022/06/06 00:24:06;;;;;;;3.70;3.13;;;15.40;7.50;;;;;;10441234;28;20224;-93
2022/06/06 00:29:28;;;;;;;3.55;3.22;;;15.40;2.70;;;;;;10440498;28;20275;-92
2022/06/06 00:34:49;;;;;;;7.47;3.47;;;15.40;1.00;;;;;;10433493;28;20187;-94
2022/06/06 00:40:11;;;;;;;3.08;2.88;;;15.30;6.50;;;;;;10437368;28;20250;-92
2022/06/06 00:45:37;;;;;;;5.38;3.33;;;15.30;1.00;;;;;;10450836;28;20249;-94
2022/06/06 00:51:13;;;;;;;4.60;3.17;;;15.30;1.00;;;;;;10440884;28;20198;-88
2022/06/06 01:01:57;;;;;;;3.60;3.25;;;15.30;1.00;;;;;;10449172;28;20255;-96
2022/06/06 01:07:19;;;;;;;5.03;3.80;;;15.30;1.00;;;;;;10433017;28;20199;-90
2022/06/06 01:12:40;;;;;;;5.80;4.10;;;15.30;1.00;;;;;;10437196;28;20193;-95
2022/06/06 01:18:20;;;;;;;4.45;3.72;;;15.30;1.00;;;;;;10464847;28;20194;-82
2022/06/06 01:24:15;;;;;;;6.38;4.78;;;15.30;1.00;;;;;;10443163;28;20229;-95
2022/06/06 01:29:40;;;;;;;3.83;3.40;;;15.20;1.00;;;;;;10456766;28;20397;-96
2022/06/06 01:35:03;;;;;;;4.95;4.00;;;15.30;1.00;;;;;;10422911;28;20511;-89
2022/06/06 01:40:44;;;;;;;5.22;3.50;;;15.20;1.00;;;;;;10438110;28;20246;-88
2022/06/06 01:46:11;;;;;;;3.72;3.38;;;15.20;1.00;;;;;;10441199;28;20196;-95
2022/06/06 01:51:33;;;;;;;4.00;2.75;;;15.10;1.00;;;;;;10437550;28;20214;-95
2022/06/06 01:56:55;;;;;;;5.28;3.55;;;15.10;1.00;;;;;;10436765;28;20389;-88
2022/06/06 02:02:16;;;;;;;4.80;4.18;;;15.00;1.00;;;;;;10471936;28;20240;-94
2022/06/06 02:07:39;;;;;;;4.75;3.30;;;15.00;1.00;;;;;;10399981;28;20200;-85
2022/06/06 02:13:00;;;;;;;3.85;3.50;;;15.00;1.00;;;;;;10388777;28;20194;-90
2022/06/06 02:18:22;;;;;;;5.75;3.58;;;14.90;1.00;;;;;;10416613;28;20509;-94
2022/06/06 02:23:43;;;;;;;5.57;3.67;;;14.80;1.00;;;;;;10424543;28;20577;-96
2022/06/06 02:29:32;;;;;;;4.47;3.22;;;14.80;1.00;;;;;;10440279;28;20261;-95
2022/06/06 02:34:54;;;;;;;4.15;3.72;;;14.80;1.00;;;;;;10438832;28;20270;-89
2022/06/06 02:40:18;;;;;;;4.60;3.55;;;14.70;1.00;;;;;;10435250;28;20223;-91
2022/06/06 02:45:40;;;;;;;4.20;3.78;;;14.70;1.00;;;;;;10420506;28;20199;-88
2022/06/06 02:51:02;;;;;;;6.22;3.90;;;14.70;1.00;;;;;;10448950;28;20195;-90
2022/06/06 03:04:24;;;;;;;4.68;3.78;;;14.60;1.00;;;;;;9683995;28;20235;-91
2022/06/06 03:27:13;;;;;;;7.60;3.83;;;14.70;1.00;;;;;;10458659;28;20262;-81
2022/06/06 03:32:37;;;;;;;6.75;3.88;;;14.80;1.00;;;;;;10454087;28;20201;-93
2022/06/06 03:38:24;;;;;;;6.38;4.97;;;14.80;1.00;;;;;;10456491;28;20199;-85
2022/06/06 03:43:57;;;;;;;5.70;4.85;;;14.80;1.00;;;;;;10444895;28;20195;-84
2022/06/06 03:49:39;;;;;;;7.18;5.13;;;14.90;1.00;;;;;;10457827;28;20235;-87
2022/06/06 03:55:19;;;;;;;6.78;4.53;;;15.00;1.00;;;;;;10429534;28;20212;-96
2022/06/06 04:00:41;;;;;;;7.20;4.13;;;15.10;1.00;;;;;;10451882;28;20562;-96
2022/06/06 04:06:04;;;;;;;4.95;4.43;;;15.20;1.00;;;;;;10440751;28;20229;-96
2022/06/06 04:11:28;;;;;;;5.20;4.25;;;15.30;1.00;;;;;;10451085;28;20191;-96
2022/06/06 04:17:04;;;;;;;6.38;5.07;;;15.40;1.00;;;;;;10417860;28;20432;-95
2022/06/06 04:22:37;;;;;;;9.60;4.65;;;15.50;1.00;;;;;;10431099;28;20608;-88
2022/06/06 04:28:05;;;;;;;6.15;4.05;;;15.60;1.00;;;;;;10434578;28;20252;-87
2022/06/06 04:33:46;;;;;;;7.38;4.82;;;15.70;1.00;;;;;;10422554;28;20202;-95
2022/06/06 04:39:18;;;;;;;7.10;4.25;;;15.80;1.00;;;;;;10432690;28;20298;-82
2022/06/06 04:44:45;;;;;;;5.68;4.40;;;15.80;1.00;;;;;;10428814;28;20194;-89
2022/06/06 04:50:10;;;;;;;5.82;4.05;;;16.00;1.00;;;;;;10429104;28;20267;-94
2022/06/06 04:55:33;;;;;;;5.85;4.38;;;16.10;1.00;;;;;;10450298;28;20203;-92
2022/06/06 05:00:55;;;;;;;7.90;4.30;;;16.30;1.00;;;;;;10448552;28;20243;-92
2022/06/06 05:06:48;;;;;;;7.88;5.05;;;16.50;1.00;;;;;;10419474;28;20199;-92
2022/06/06 05:12:32;;;;;;;4.75;4.28;;;16.60;1.00;;;;;;10412375;28;20224;-86
2022/06/06 05:18:28;;;;;;;5.78;4.03;;;16.90;1.00;;;;;;10426404;28;20310;-94
2022/06/06 05:24:13;;;;;;;5.72;4.28;;;17.10;13.20;;;;;;10351992;28;20603;-93
2022/06/06 05:29:39;;;;;;;5.53;4.20;;;17.30;43.00;;;;;;10439432;23;20259;-95
2022/06/06 05:35:13;;;;;;;7.63;5.40;;;17.50;93.70;;;;;;10447355;28;20502;-87
2022/06/06 05:40:38;;;;;;;6.28;5.20;;;17.60;99.90;;;;;;10414544;28;20531;-88
2022/06/06 05:46:19;;;;;;;6.90;5.85;;;17.60;99.90;;;;;;10442942;28;20264;-89
2022/06/06 05:52:02;;;;;;;6.20;5.45;;;17.60;99.90;;;;;;10442051;28;20373;-86
2022/06/06 05:57:44;;;;;;;8.45;5.30;;;17.80;99.90;;;;;;10429598;28;20382;-81
2022/06/06 06:03:28;;;;;;;8.85;5.43;;;17.90;99.90;;;;;;10458607;28;20253;-82
2022/06/06 06:08:55;;;;;;;11.90;9.00;;;17.90;99.90;;;;;;10323579;28;20365;-82
2022/06/06 06:14:35;;;;;;;22.90;12.30;;;17.80;99.90;;;;;;10329230;28;20209;-88
2022/06/06 06:20:17;;;;;;;12.88;7.50;;;18.00;99.90;;;;;;10328030;28;20233;-85
2022/06/06 06:25:41;;;;;;;10.95;5.45;;;18.20;99.90;;;;;;10343781;28;20205;-90
2022/06/06 06:31:31;;;;;;;10.82;6.65;;;18.60;99.90;;;;;;10333745;28;20217;-88
2022/06/06 06:37:12;;;;;;;6.93;5.40;;;19.00;99.90;;;;;;10355828;28;20252;-83
2022/06/06 06:42:57;;;;;;;7.07;5.68;;;19.40;99.90;;;;;;10365818;28;20224;-86
2022/06/06 06:48:28;;;;;;;7.18;5.07;;;19.90;99.80;;;;;;10426794;28;20216;-88
2022/06/06 06:54:11;;;;;;;8.40;5.80;;;20.20;98.70;;;;;;10410238;28;20479;-86
2022/06/06 07:00:00;;;;;;;4.90;4.20;;;20.80;97.70;;;;;;10392264;28;20613;-82
2022/06/06 07:11:31;;;;;;;9.05;5.25;;;22.20;91.60;;;;;;10402265;28;20567;-83
2022/06/06 07:16:57;;;;;;;5.65;4.53;;;22.70;90.50;;;;;;10373960;28;20288;-84
2022/06/06 07:22:20;;;;;;;6.20;3.95;;;23.40;80.40;;;;;;10394906;28;20221;-81
2022/06/06 07:27:41;;;;;;;4.50;3.60;;;24.10;77.90;;;;;;10393659;28;20233;-79
2022/06/06 07:33:18;;;;;;;5.53;3.92;;;24.70;91.00;;;;;;10368453;28;20248;-85
2022/06/06 07:45:29;;;;;;;5.35;4.25;;;25.00;1.00;;;;;;10389414;28;20581;-83
2022/06/06 07:51:13;;;;;;;4.88;4.10;;;25.50;1.00;;;;;;10363644;28;20205;-83
2022/06/06 07:56:37;;;;;;;4.63;3.88;;;26.10;99.90;;;;;;10358386;28;20208;-82
2022/06/06 08:02:19;;;;;;;4.15;3.75;;;26.00;99.90;;;;;;10390981;28;20229;-82
2022/06/06 08:20:09;;;;;;;4.45;3.78;;;27.50;1.00;;;;;;10253115;29;20470;-82
2022/06/06 08:25:33;;;;;;;7.22;3.78;;;27.30;57.00;;;;;;10268918;28;20294;-82
2022/06/06 08:30:54;;;;;;;6.20;4.13;;;27.40;1.00;;;;;;10249671;29;20250;-90
2022/06/06 08:36:25;;;;;;;6.35;3.58;;;;;;;;;;10279618;28;20207;-82
2022/06/06 08:53:11;;;;;;;9.85;3.60;;;27.80;1.00;;;;;;10251421;29;20460;-84
2022/06/06 08:58:58;;;;;;;2.92;2.70;;;27.50;99.90;;;;;;10396119;28;20407;-79
2022/06/06 09:04:41;;;;;;;4.55;3.20;;;27.30;99.90;;;;;;10396488;28;20201;-80
2022/06/06 09:10:25;;;;;;;8.23;3.75;;;27.20;99.90;;;;;;10382859;28;20216;-81
2022/06/06 09:16:14;;;;;;;3.58;3.28;;;27.30;99.90;;;;;;10395994;28;20267;-79
2022/06/06 09:21:50;;;;;;;5.63;2.85;;;27.00;99.90;;;;;;10382875;28;20232;-83
2022/06/06 09:27:33;;;;;;;3.75;3.20;;;26.80;99.90;;;;;;10401603;28;20312;-82
2022/06/06 09:33:10;;;;;;;7.25;3.30;;;27.10;99.90;;;;;;10390994;28;20638;-79
2022/06/06 09:39:00;;;;;;;6.13;3.30;;;27.20;99.90;;;;;;10397350;28;20228;-84
2022/06/06 09:45:03;;;;;;;9.10;4.07;;;27.50;99.90;;;;;;10361009;28;20201;-86
2022/06/06 09:50:47;;;;;;;9.43;3.83;;;28.10;99.90;;;;;;10368362;28;20189;-78
2022/06/06 10:02:36;;;;;;;6.18;3.78;;;28.90;99.90;;;;;;10379916;28;20240;-81
2022/06/06 10:08:30;;;;;;;3.97;3.50;;;29.00;99.90;;;;;;10367524;28;20208;-85
2022/06/06 10:13:57;;;;;;;4.40;3.20;;;29.40;99.90;;;;;;10345558;28;20201;-83
2022/06/06 10:19:52;;;;;;;5.00;3.15;;;29.80;99.90;;;;;;10368239;28;20209;-82
2022/06/06 10:25:44;;;;;;;4.97;4.45;;;28.30;99.90;;;;;;10384477;28;20224;-83
2022/06/06 10:31:32;;;;;;;5.15;3.53;;;27.60;99.90;;;;;;10393762;28;20199;-79
2022/06/06 10:37:24;;;;;;;3.58;3.25;;;28.20;99.90;;;;;;10403551;28;20394;-81
2022/06/06 10:43:22;;;;;;;4.20;3.55;;;28.90;99.90;;;;;;10338928;28;20543;-80
2022/06/06 10:48:49;;;;;;;3.33;3.03;;;29.60;99.90;;;;;;10387410;28;20197;-82
2022/06/06 10:54:19;;;;;;;5.20;3.10;;;29.60;99.90;;;;;;10378774;28;20236;-80
2022/06/06 10:59:47;;;;;;;3.60;3.05;;;29.50;99.90;;;;;;10356994;28;20209;-77
2022/06/06 11:05:33;;;;;;;3.88;3.05;;;29.60;99.90;;;;;;10393030;28;20255;-79
2022/06/06 11:11:22;;;;;;;4.93;3.10;;;29.00;99.90;;;;;;10378055;28;20491;-87
2022/06/06 11:17:10;;;;;;;3.22;2.92;;;28.40;99.90;;;;;;10365550;28;20452;-85
2022/06/06 11:22:48;;;;;;;5.95;3.67;;;28.10;99.90;;;;;;10371785;28;20248;-78
2022/06/06 11:28:38;;;;;;;6.47;3.40;;;28.10;99.90;;;;;;10406208;28;20232;-79
2022/06/06 11:34:32;;;;;;;3.83;3.45;;;27.70;99.90;;;;;;10347602;28;20455;-84
2022/06/06 11:39:59;;;;;;;3.72;3.25;;;27.40;99.90;;;;;;10391954;28;20228;-87
2022/06/06 11:45:40;;;;;;;4.63;3.15;;;27.30;99.90;;;;;;10392970;28;20208;-83
2022/06/06 11:51:23;;;;;;;7.78;2.90;;;27.50;99.90;;;;;;10365099;28;20596;-83
2022/06/06 11:57:00;;;;;;;3.90;2.80;;;27.50;99.90;;;;;;10377104;28;20257;-80
2022/06/06 12:02:59;;;;;;;5.53;3.75;;;27.50;99.90;;;;;;10362843;28;20228;-83
2022/06/06 12:08:38;;;;;;;3.30;3.00;;;27.60;99.90;;;;;;10369705;28;20247;-80
2022/06/06 12:14:07;;;;;;;10.40;3.95;;;27.40;99.90;;;;;;10411090;28;20196;-85
2022/06/06 12:19:28;;;;;;;5.57;3.60;;;27.00;99.90;;;;;;10340892;28;20293;-86
2022/06/06 12:24:59;;;;;;;4.78;4.03;;;26.80;99.90;;;;;;10368692;28;20200;-90
2022/06/06 12:30:44;;;;;;;6.00;3.40;;;26.60;99.90;;;;;;10432003;28;20248;-84
2022/06/06 12:36:15;;;;;;;4.22;3.83;;;26.50;99.90;;;;;;10380009;28;20204;-87
2022/06/06 12:41:59;;;;;;;5.13;4.47;;;26.70;99.90;;;;;;10363722;28;20232;-86
2022/06/06 12:47:20;;;;;;;4.88;4.38;;;26.80;99.90;;;;;;10376875;28;20211;-84
2022/06/06 12:52:55;;;;;;;7.38;5.40;;;26.60;99.90;;;;;;10376104;28;20243;-88
2022/06/06 12:58:20;;;;;;;7.90;5.00;;;26.60;99.90;;;;;;10376591;28;20217;-85
2022/06/06 13:04:11;;;;;;;24.88;22.38;;;26.70;99.90;;;;;;10370298;28;20263;-83
2022/06/06 13:09:48;;;;;;;11.52;5.30;;;26.60;99.90;;;;;;10378636;28;20281;-83
2022/06/06 13:15:13;;;;;;;8.77;5.97;;;26.40;99.90;;;;;;10368184;28;20291;-82
2022/06/06 13:20:51;;;;;;;6.78;5.13;;;26.50;99.90;;;;;;10404757;28;20224;-87
2022/06/06 13:26:47;;;;;;;5.22;4.72;;;26.40;99.90;;;;;;10400836;28;20270;-82
2022/06/06 13:32:32;;;;;;;6.20;4.82;;;26.40;99.90;;;;;;10352956;28;20426;-86
2022/06/06 13:37:56;;;;;;;5.07;4.65;;;26.10;99.90;;;;;;10378087;28;20193;-86
2022/06/06 13:43:53;;;;;;;7.00;5.78;;;26.00;99.90;;;;;;10380500;28;20689;-89
2022/06/06 13:49:49;;;;;;;6.25;5.50;;;25.80;99.90;;;;;;10379230;28;20284;-85
2022/06/06 13:55:28;;;;;;;7.65;5.18;;;25.70;99.90;;;;;;10377723;28;20228;-84
2022/06/06 14:01:07;;;;;;;7.60;5.47;;;25.50;99.90;;;;;;10365567;28;20245;-88
2022/06/06 14:06:44;;;;;;;11.45;9.02;;;25.50;99.90;;;;;;10392917;28;20433;-82
2022/06/06 14:12:09;;;;;;;5.38;4.68;;;25.40;99.90;;;;;;10393584;28;20296;-91
2022/06/06 14:18:03;;;;;;;4.53;3.70;;;25.40;99.90;;;;;;10398468;28;20491;-92
2022/06/06 14:23:38;;;;;;;8.43;4.57;;;25.10;99.90;;;;;;10398720;28;20243;-85
2022/06/06 14:29:23;;;;;;;8.50;4.15;;;25.10;99.90;;;;;;10369936;28;20241;-83
2022/06/06 14:34:47;;;;;;;5.22;4.10;;;24.90;99.90;;;;;;10416416;28;20211;-88
2022/06/06 14:40:15;;;;;;;6.03;4.03;;;24.80;99.90;;;;;;10389045;28;20609;-94
2022/06/06 14:45:39;;;;;;;6.03;4.63;;;24.80;99.90;;;;;;10392206;28;20267;-85
2022/06/06 14:51:43;;;;;;;6.55;4.50;;;24.70;99.90;;;;;;10424829;28;20192;-84
2022/06/06 14:57:09;;;;;;;5.35;4.45;;;24.70;99.90;;;;;;10408982;28;20220;-91
2022/06/06 15:02:31;;;;;;;5.13;4.13;;;24.60;99.90;;;;;;10375693;28;20224;-83
2022/06/06 15:08:31;;;;;;;6.20;4.20;;;24.60;99.90;;;;;;10343526;28;20293;-81
2022/06/06 15:13:56;;;;;;;7.80;4.55;;;24.60;1.00;;;;;;10391234;28;20205;-81
2022/06/06 15:19:33;;;;;;;7.15;3.90;;;24.60;1.00;;;;;;10369025;28;20293;-85
2022/06/06 15:24:57;;;;;;;6.78;5.07;;;24.60;1.00;;;;;;10366926;28;20256;-79
2022/06/06 15:30:27;;;;;;;7.07;4.45;;;24.50;1.00;;;;;;10398121;28;20401;-83
2022/06/06 15:36:05;;;;;;;5.43;4.53;;;24.30;1.00;;;;;;10382833;28;20193;-86
2022/06/06 15:41:40;;;;;;;5.93;4.53;;;24.30;1.00;;;;;;10386431;28;20275;-81
2022/06/06 15:47:32;;;;;;;7.18;4.80;;;24.10;1.00;;;;;;10356814;28;20392;-82
2022/06/06 15:53:23;;;;;;;8.00;4.75;;;23.60;1.00;;;;;;10356623;28;20198;-82
2022/06/06 15:59:06;;;;;;;5.97;5.38;;;23.30;99.90;;;;;;10351137;28;20377;-81
2022/06/06 16:05:00;;;;;;;5.32;4.60;;;23.10;1.00;;;;;;10382384;28;20216;-82
2022/06/06 16:10:49;;;;;;;5.30;4.80;;;23.00;1.00;;;;;;10369964;28;20541;-81
2022/06/06 16:16:39;;;;;;;5.05;4.55;;;23.00;99.90;;;;;;10381257;28;20205;-82
2022/06/06 16:22:19;;;;;;;5.53;5.03;;;23.00;1.00;;;;;;10390575;28;20221;-81
2022/06/06 16:27:57;;;;;;;5.43;4.65;;;22.80;69.10;;;;;;10392004;28;20229;-82
2022/06/06 16:33:20;;;;;;;5.63;5.07;;;22.60;1.00;;;;;;10394074;28;20193;-81
2022/06/06 16:38:45;;;;;;;7.07;4.53;;;22.50;99.90;;;;;;10395150;28;20186;-82
2022/06/06 16:50:33;;;;;;;5.55;4.40;;;22.50;99.90;;;;;;10395836;28;20197;-80
2022/06/06 16:56:00;;;;;;;5.68;5.07;;;22.30;99.90;;;;;;10395728;28;20399;-82
2022/06/06 17:01:48;;;;;;;6.03;5.45;;;22.20;99.90;;;;;;10380199;28;20220;-80
2022/06/06 17:13:02;;;;;;;7.05;5.40;;;22.00;3.90;;;;;;10394734;28;20200;-80
2022/06/06 17:18:28;;;;;;;8.18;5.35;;;22.00;1.00;;;;;;10399920;28;20257;-81
2022/06/06 17:23:57;;;;;;;9.23;6.80;;;21.90;34.80;;;;;;10388311;28;20263;-82
2022/06/06 17:29:42;;;;;;;11.18;8.15;;;21.90;1.00;;;;;;10438097;28;20228;-81
2022/06/06 17:35:26;;;;;;;18.58;12.82;;;21.80;99.90;;;;;;10391778;28;20205;-82
2022/06/06 17:40:47;;;;;;;9.93;8.52;;;21.70;1.00;;;;;;10402257;28;20535;-84
2022/06/06 17:46:12;;;;;;;11.32;9.88;;;21.50;1.00;;;;;;10401966;28;20382;-82
2022/06/06 17:52:14;;;;;;;9.15;8.00;;;21.40;1.00;;;;;;10401785;28;20197;-82
2022/06/06 17:58:06;;;;;;;7.97;7.18;;;21.30;47.50;;;;;;10344070;28;20206;-81
2022/06/06 18:04:00;;;;;;;8.75;7.25;;;21.20;27.60;;;;;;10318745;28;20269;-81
2022/06/06 18:09:53;;;;;;;9.93;8.82;;;21.10;29.60;;;;;;10327378;28;20210;-81
2022/06/06 18:15:33;;;;;;;9.27;7.65;;;20.90;42.00;;;;;;10356614;28;20225;-80
2022/06/06 18:21:01;;;;;;;11.65;7.28;;;20.70;49.50;;;;;;10347097;28;20233;-86
2022/06/06 18:26:28;;;;;;;10.73;7.80;;;20.60;49.40;;;;;;10338125;28;20420;-81
2022/06/06 18:31:55;;;;;;;10.18;8.00;;;20.40;51.90;;;;;;10421353;28;20291;-81
2022/06/06 18:37:21;;;;;;;12.00;7.90;;;20.40;24.20;;;;;;10435180;28;20185;-82
2022/06/06 18:42:45;;;;;;;7.75;7.00;;;20.40;17.00;;;;;;10384608;28;20239;-80
2022/06/06 18:48:16;;;;;;;11.25;8.77;;;20.20;15.30;;;;;;10398682;28;20189;-80
2022/06/06 18:53:45;;;;;;;9.55;8.32;;;20.00;48.60;;;;;;10397843;28;20227;-80
2022/06/06 18:59:21;;;;;;;11.60;9.40;;;20.00;99.90;;;;;;10384201;28;20198;-80
2022/06/06 19:04:50;;;;;;;10.43;9.35;;;19.90;99.90;;;;;;10397413;28;20225;-82
2022/06/06 19:10:11;;;;;;;13.57;10.02;;;19.80;99.90;;;;;;10383456;28;20209;-80
2022/06/06 19:15:40;;;;;;;11.90;9.75;;;19.70;99.90;;;;;;10397318;28;20200;-81
2022/06/06 19:21:08;;;;;;;11.60;9.60;;;19.60;99.90;;;;;;10400537;28;20296;-79
2022/06/06 19:26:38;;;;;;;11.23;9.60;;;19.50;99.90;;;;;;10417954;28;20279;-80
2022/06/06 19:32:03;;;;;;;12.70;10.82;;;19.40;99.90;;;;;;10439432;28;20216;-81
2022/06/06 19:37:34;;;;;;;13.02;10.73;;;19.40;99.90;;;;;;10424983;28;20203;-81
2022/06/06 19:43:09;;;;;;;13.05;10.98;;;19.40;99.90;;;;;;10417507;28;20220;-83
2022/06/06 19:48:45;;;;;;;12.15;9.40;;;19.30;99.90;;;;;;10396487;28;20551;-83
2022/06/06 19:54:13;;;;;;;12.52;11.23;;;19.30;99.90;;;;;;10382042;28;20201;-82
2022/06/06 19:59:52;;;;;;;15.75;12.45;;;19.20;99.90;;;;;;10397005;28;20484;-82
2022/06/06 20:05:26;;;;;;;16.27;12.90;;;19.10;99.90;;;;;;10395483;28;20460;-92
2022/06/06 20:10:48;;;;;;;13.98;12.23;;;19.00;99.90;;;;;;10383074;28;20280;-83
2022/06/06 20:16:32;;;;;;;15.05;12.50;;;19.00;99.90;;;;;;10398560;28;20239;-82
2022/06/06 20:21:57;;;;;;;19.58;14.32;;;19.00;99.90;;;;;;10360952;28;20240;-81
2022/06/06 20:27:26;;;;;;;15.10;12.30;;;18.90;99.90;;;;;;10402269;28;20557;-83
2022/06/06 20:32:51;;;;;;;15.77;13.10;;;18.80;99.90;;;;;;10436653;28;20555;-81
2022/06/06 20:38:14;;;;;;;14.10;12.13;;;18.80;99.90;;;;;;10422124;28;20246;-81
2022/06/06 20:43:39;;;;;;;14.38;12.52;;;18.90;99.90;;;;;;10410024;28;20300;-88
2022/06/06 20:49:02;;;;;;;16.52;13.32;;;18.90;99.90;;;;;;10368367;28;20240;-91
2022/06/06 20:54:29;;;;;;;16.83;14.25;;;19.00;99.90;;;;;;10403838;28;20243;-81
2022/06/06 20:59:51;;;;;;;19.75;16.67;;;18.90;99.90;;;;;;10404074;28;20196;-80
2022/06/06 21:05:12;;;;;;;17.27;15.18;;;18.80;99.90;;;;;;10388435;28;20205;-83
2022/06/06 21:10:35;;;;;;;15.25;12.63;;;18.80;99.90;;;;;;10388274;28;20229;-82
2022/06/06 21:15:57;;;;;;;13.10;11.23;;;18.70;99.90;;;;;;10374960;28;20563;-88
2022/06/06 21:21:22;;;;;;;15.20;11.32;;;18.60;99.90;;;;;;10387998;28;20228;-81
2022/06/06 21:26:45;;;;;;;12.95;11.57;;;18.50;99.90;;;;;;10401467;28;20324;-84
2022/06/06 21:32:06;;;;;;;12.80;11.35;;;18.50;99.90;;;;;;10386984;28;20193;-82
2022/06/06 21:37:27;;;;;;;16.77;12.43;;;18.40;99.90;;;;;;10373794;28;20220;-83
2022/06/06 21:42:48;;;;;;;15.27;13.00;;;18.40;99.90;;;;;;10402366;28;20231;-86
2022/06/06 21:48:10;;;;;;;14.98;12.35;;;18.40;99.90;;;;;;10373314;28;20494;-86
2022/06/06 21:53:31;;;;;;;13.75;12.35;;;18.40;99.90;;;;;;10386956;28;20239;-85
2022/06/06 21:58:53;;;;;;;14.27;12.88;;;18.30;99.90;;;;;;10400750;28;20374;-84
2022/06/06 22:04:16;;;;;;;15.07;13.48;;;18.20;99.90;;;;;;10385325;28;20229;-84
2022/06/06 22:09:38;;;;;;;14.27;12.77;;;18.20;99.90;;;;;;10401338;28;20189;-88
2022/06/06 22:14:59;;;;;;;15.40;12.73;;;18.30;99.90;;;;;;10386346;28;20276;-84
2022/06/06 22:20:20;;;;;;;12.60;11.38;;;18.30;99.90;;;;;;10385510;28;20207;-87
2022/06/06 22:25:42;;;;;;;15.43;12.15;;;18.30;99.90;;;;;;10392910;28;20192;-81
2022/06/06 22:31:04;;;;;;;13.75;12.35;;;18.20;99.90;;;;;;10406886;28;20416;-83
2022/06/06 22:36:26;;;;;;;13.75;12.27;;;18.30;99.90;;;;;;10385853;28;20231;-82
2022/06/06 22:41:48;;;;;;;12.88;11.57;;;18.30;99.90;;;;;;10399148;28;20217;-85
2022/06/06 22:47:09;;;;;;;13.90;12.35;;;18.20;99.90;;;;;;10398506;28;20185;-80
2022/06/06 22:52:30;;;;;;;13.73;12.13;;;18.20;99.90;;;;;;10385039;28;20205;-88
2022/06/06 22:57:52;;;;;;;14.68;13.20;;;18.20;99.90;;;;;;10398340;28;20379;-84
2022/06/06 23:03:14;;;;;;;14.85;12.40;;;18.20;99.90;;;;;;10398521;28;20454;-85
2022/06/06 23:08:36;;;;;;;12.18;10.98;;;18.20;99.90;;;;;;10384415;28;20189;-81
2022/06/06 23:13:57;;;;;;;14.02;12.70;;;18.20;99.90;;;;;;10397662;28;20193;-85
2022/06/06 23:19:21;;;;;;;13.82;12.43;;;18.30;99.90;;;;;;10383364;28;20197;-85
2022/06/06 23:24:42;;;;;;;13.70;12.40;;;18.20;99.90;;;;;;10397402;28;20221;-80
2022/06/06 23:30:04;;;;;;;16.92;13.63;;;18.30;99.90;;;;;;10355961;28;20242;-80
2022/06/06 23:35:25;;;;;;;13.60;12.30;;;18.20;99.90;;;;;;10342684;28;20293;-80
2022/06/06 23:40:48;;;;;;;13.73;12.02;;;18.20;99.90;;;;;;10356283;28;20255;-83
2022/06/06 23:52:11;;;;;;;13.02;11.73;;;18.20;99.90;;;;;;10394416;28;20211;-82
2022/06/06 23:57:33;;;;;;;13.52;12.15;;;18.10;99.90;;;;;;10399002;28;20458;-80
